sensor_id;sensor_type;location;lat;lon;timestamp;pressure;altitude;pressure_sealevel;temperature;humidity
73267;BME280;61495;53.400;7.608;2022-12-17T00:00:45;102208.88;;;-0.42;89.31
73267;BME280;61495;53.400;7.608;2022-12-17T00:03:29;102206.34;;;-0.43;89.29
73267;BME280;61495;53.400;7.608;2022-12-17T00:06:13;102202.78;;;-0.42;89.53
73267;BME280;61495;53.400;7.608;2022-12-17T00:08:57;102205.50;;;-0.44;89.50
73267;BME280;61495;53.400;7.608;2022-12-17T00:11:41;102206.34;;;-0.43;89.30
73267;BME280;61495;53.400;7.608;2022-12-17T00:14:25;102212.53;;;-0.44;89.39
73267;BME280;61495;53.400;7.608;2022-12-17T00:17:09;102213.50;;;-0.45;89.27
73267;BME280;61495;53.400;7.608;2022-12-17T00:19:53;102211.81;;;-0.46;89.31
73267;BME280;61495;53.400;7.608;2022-12-17T00:22:37;102222.34;;;-0.46;89.42
73267;BME280;61495;53.400;7.608;2022-12-17T00:25:21;102222.47;;;-0.48;89.72
73267;BME280;61495;53.400;7.608;2022-12-17T00:28:09;102231.16;;;-0.47;89.51
73267;BME280;61495;53.400;7.608;2022-12-17T00:30:53;102230.34;;;-0.48;89.31
73267;BME280;61495;53.400;7.608;2022-12-17T00:33:38;102226.97;;;-0.50;89.44
73267;BME280;61495;53.400;7.608;2022-12-17T00:36:21;102233.06;;;-0.49;89.70
73267;BME280;61495;53.400;7.608;2022-12-17T00:39:06;102236.63;;;-0.50;89.24
73267;BME280;61495;53.400;7.608;2022-12-17T00:41:50;102230.63;;;-0.52;89.22
73267;BME280;61495;53.400;7.608;2022-12-17T00:44:34;102237.69;;;-0.53;89.48
73267;BME280;61495;53.400;7.608;2022-12-17T00:47:18;102241.28;;;-0.54;89.33
73267;BME280;61495;53.400;7.608;2022-12-17T00:50:02;102240.44;;;-0.54;89.28
73267;BME280;61495;53.400;7.608;2022-12-17T00:52:46;102237.81;;;-0.54;89.54
73267;BME280;61495;53.400;7.608;2022-12-17T00:55:30;102235.25;;;-0.56;89.44
73267;BME280;61495;53.400;7.608;2022-12-17T00:58:14;102234.44;;;-0.57;89.53
73267;BME280;61495;53.400;7.608;2022-12-17T01:00:59;102237.06;;;-0.57;89.44
73267;BME280;61495;53.400;7.608;2022-12-17T01:03:43;102247.59;;;-0.57;89.49
73267;BME280;61495;53.400;7.608;2022-12-17T01:06:27;102251.16;;;-0.58;89.55
73267;BME280;61495;53.400;7.608;2022-12-17T01:09:11;102251.16;;;-0.58;89.35
73267;BME280;61495;53.400;7.608;2022-12-17T01:11:55;102246.94;;;-0.60;89.76
73267;BME280;61495;53.400;7.608;2022-12-17T01:14:42;102249.56;;;-0.60;89.51
73267;BME280;61495;53.400;7.608;2022-12-17T01:17:26;102256.63;;;-0.61;89.43
73267;BME280;61495;53.400;7.608;2022-12-17T01:20:10;102261.03;;;-0.61;89.53
73267;BME280;61495;53.400;7.608;2022-12-17T01:22:54;102267.16;;;-0.61;89.36
73267;BME280;61495;53.400;7.608;2022-12-17T01:25:38;102265.44;;;-0.62;89.28
73267;BME280;61495;53.400;7.608;2022-12-17T01:28:23;102275.03;;;-0.61;89.42
73267;BME280;61495;53.400;7.608;2022-12-17T01:31:09;102277.69;;;-0.61;89.29
73267;BME280;61495;53.400;7.608;2022-12-17T01:33:53;102281.25;;;-0.62;89.37
73267;BME280;61495;53.400;7.608;2022-12-17T01:36:37;102287.34;;;-0.61;89.33
73267;BME280;61495;53.400;7.608;2022-12-17T01:39:21;102296.28;;;-0.64;89.18
73267;BME280;61495;53.400;7.608;2022-12-17T01:42:10;102285.84;;;-0.65;89.29
73267;BME280;61495;53.400;7.608;2022-12-17T01:44:55;102286.69;;;-0.65;89.30
73267;BME280;61495;53.400;7.608;2022-12-17T01:47:50;102291.97;;;-0.65;89.22
73267;BME280;61495;53.400;7.608;2022-12-17T01:50:38;102299.19;;;-0.68;89.18
73267;BME280;61495;53.400;7.608;2022-12-17T01:53:30;102302.69;;;-0.68;89.28
73267;BME280;61495;53.400;7.608;2022-12-17T01:56:17;102299.19;;;-0.68;89.08
73267;BME280;61495;53.400;7.608;2022-12-17T01:59:02;102290.50;;;-0.69;89.15
73267;BME280;61495;53.400;7.608;2022-12-17T02:01:46;102288.78;;;-0.70;89.07
73267;BME280;61495;53.400;7.608;2022-12-17T02:04:30;102289.84;;;-0.72;89.13
73267;BME280;61495;53.400;7.608;2022-12-17T02:10:41;102282.88;;;-0.73;89.10
73267;BME280;61495;53.400;7.608;2022-12-17T02:13:34;102287.28;;;-0.74;89.27
73267;BME280;61495;53.400;7.608;2022-12-17T02:16:30;102284.78;;;-0.75;89.02
73267;BME280;61495;53.400;7.608;2022-12-17T02:19:40;102288.25;;;-0.75;88.90
73267;BME280;61495;53.400;7.608;2022-12-17T02:25:15;102299.72;;;-0.76;89.14
73267;BME280;61495;53.400;7.608;2022-12-17T02:28:01;102298.97;;;-0.78;89.17
73267;BME280;61495;53.400;7.608;2022-12-17T02:30:44;102302.66;;;-0.80;89.04
73267;BME280;61495;53.400;7.608;2022-12-17T02:33:48;102308.72;;;-0.80;89.17
73267;BME280;61495;53.400;7.608;2022-12-17T02:36:34;102300.22;;;-0.83;88.99
73267;BME280;61495;53.400;7.608;2022-12-17T02:39:18;102299.34;;;-0.84;88.96
73267;BME280;61495;53.400;7.608;2022-12-17T02:42:03;102302.84;;;-0.83;89.16
73267;BME280;61495;53.400;7.608;2022-12-17T02:44:48;102301.13;;;-0.84;89.13
73267;BME280;61495;53.400;7.608;2022-12-17T02:47:32;102289.78;;;-0.85;89.25
73267;BME280;61495;53.400;7.608;2022-12-17T02:50:16;102302.00;;;-0.84;88.94
73267;BME280;61495;53.400;7.608;2022-12-17T02:53:00;102306.41;;;-0.84;89.26
73267;BME280;61495;53.400;7.608;2022-12-17T02:55:45;102304.81;;;-0.87;89.16
73267;BME280;61495;53.400;7.608;2022-12-17T02:58:29;102304.03;;;-0.89;88.97
73267;BME280;61495;53.400;7.608;2022-12-17T03:01:14;102311.00;;;-0.88;89.19
73267;BME280;61495;53.400;7.608;2022-12-17T03:03:58;102308.47;;;-0.89;89.03
73267;BME280;61495;53.400;7.608;2022-12-17T03:06:43;102314.56;;;-0.89;88.86
73267;BME280;61495;53.400;7.608;2022-12-17T03:09:27;102317.19;;;-0.89;89.16
73267;BME280;61495;53.400;7.608;2022-12-17T03:12:11;102323.31;;;-0.88;89.17
73267;BME280;61495;53.400;7.608;2022-12-17T03:14:55;102323.41;;;-0.90;89.14
73267;BME280;61495;53.400;7.608;2022-12-17T03:17:39;102327.72;;;-0.89;89.02
73267;BME280;61495;53.400;7.608;2022-12-17T03:20:23;102319.00;;;-0.89;89.05
73267;BME280;61495;53.400;7.608;2022-12-17T03:23:08;102331.31;;;-0.90;89.01
73267;BME280;61495;53.400;7.608;2022-12-17T03:25:52;102326.97;;;-0.91;89.07
73267;BME280;61495;53.400;7.608;2022-12-17T03:28:37;102326.13;;;-0.91;89.11
73267;BME280;61495;53.400;7.608;2022-12-17T03:31:21;102323.59;;;-0.93;88.95
73267;BME280;61495;53.400;7.608;2022-12-17T03:34:05;102326.97;;;-0.91;89.13
73267;BME280;61495;53.400;7.608;2022-12-17T03:36:49;102327.16;;;-0.94;89.11
73267;BME280;61495;53.400;7.608;2022-12-17T03:39:33;102337.81;;;-0.95;88.93
73267;BME280;61495;53.400;7.608;2022-12-17T03:42:17;102335.16;;;-0.95;89.15
73267;BME280;61495;53.400;7.608;2022-12-17T03:45:02;102332.63;;;-0.97;89.24
73267;BME280;61495;53.400;7.608;2022-12-17T03:47:46;102321.25;;;-0.97;89.21
73267;BME280;61495;53.400;7.608;2022-12-17T03:50:30;102331.78;;;-0.97;89.10
73267;BME280;61495;53.400;7.608;2022-12-17T03:53:14;102322.09;;;-0.97;88.80
73267;BME280;61495;53.400;7.608;2022-12-17T03:55:58;102330.91;;;-0.98;88.74
73267;BME280;61495;53.400;7.608;2022-12-17T03:58:42;102328.28;;;-0.98;89.07
73267;BME280;61495;53.400;7.608;2022-12-17T04:01:26;102325.84;;;-1.01;89.03
73267;BME280;61495;53.400;7.608;2022-12-17T04:04:10;102336.38;;;-1.01;88.90
73267;BME280;61495;53.400;7.608;2022-12-17T04:06:54;102335.44;;;-1.00;89.12
73267;BME280;61495;53.400;7.608;2022-12-17T04:09:38;102339.97;;;-1.02;88.96
73267;BME280;61495;53.400;7.608;2022-12-17T04:12:22;102337.34;;;-1.02;89.13
73267;BME280;61495;53.400;7.608;2022-12-17T04:15:07;102345.22;;;-1.02;88.86
73267;BME280;61495;53.400;7.608;2022-12-17T04:17:51;102341.75;;;-1.02;88.81
73267;BME280;61495;53.400;7.608;2022-12-17T04:20:35;102345.22;;;-1.02;89.02
73267;BME280;61495;53.400;7.608;2022-12-17T04:23:19;102343.53;;;-1.03;88.80
73267;BME280;61495;53.400;7.608;2022-12-17T04:26:03;102343.53;;;-1.03;88.98
73267;BME280;61495;53.400;7.608;2022-12-17T04:28:47;102344.38;;;-1.02;89.12
73267;BME280;61495;53.400;7.608;2022-12-17T04:31:31;102346.25;;;-1.04;88.93
73267;BME280;61495;53.400;7.608;2022-12-17T04:34:14;102340.16;;;-1.05;88.88
73267;BME280;61495;53.400;7.608;2022-12-17T04:36:59;102348.22;;;-1.08;89.17
73267;BME280;61495;53.400;7.608;2022-12-17T04:39:43;102345.59;;;-1.08;88.99
73267;BME280;61495;53.400;7.608;2022-12-17T04:42:27;102350.00;;;-1.08;88.90
73267;BME280;61495;53.400;7.608;2022-12-17T04:45:11;102348.31;;;-1.09;89.04
73267;BME280;61495;53.400;7.608;2022-12-17T04:48:03;102353.75;;;-1.13;89.09
73267;BME280;61495;53.400;7.608;2022-12-17T04:50:47;102356.31;;;-1.11;89.08
73267;BME280;61495;53.400;7.608;2022-12-17T04:53:31;102361.56;;;-1.11;88.88
73267;BME280;61495;53.400;7.608;2022-12-17T04:56:15;102354.53;;;-1.10;89.11
73267;BME280;61495;53.400;7.608;2022-12-17T04:59:00;102358.00;;;-1.10;89.08
73267;BME280;61495;53.400;7.608;2022-12-17T05:01:43;102358.00;;;-1.10;89.24
73267;BME280;61495;53.400;7.608;2022-12-17T05:04:27;102357.41;;;-1.15;88.87
73267;BME280;61495;53.400;7.608;2022-12-17T05:07:11;102361.56;;;-1.11;88.83
73267;BME280;61495;53.400;7.608;2022-12-17T05:09:55;102362.50;;;-1.12;88.93
73267;BME280;61495;53.400;7.608;2022-12-17T05:12:39;102364.28;;;-1.13;89.23
73267;BME280;61495;53.400;7.608;2022-12-17T05:15:24;102364.28;;;-1.13;88.83
73267;BME280;61495;53.400;7.608;2022-12-17T05:18:18;102360.72;;;-1.12;88.90
73267;BME280;61495;53.400;7.608;2022-12-17T05:21:02;102357.34;;;-1.14;88.93
73267;BME280;61495;53.400;7.608;2022-12-17T05:23:46;102358.19;;;-1.13;89.17
73267;BME280;61495;53.400;7.608;2022-12-17T05:26:30;102369.53;;;-1.13;88.86
73267;BME280;61495;53.400;7.608;2022-12-17T05:29:14;102368.72;;;-1.13;88.94
73267;BME280;61495;53.400;7.608;2022-12-17T05:31:58;102361.75;;;-1.14;89.00
73267;BME280;61495;53.400;7.608;2022-12-17T05:34:42;102367.75;;;-1.12;88.96
73267;BME280;61495;53.400;7.608;2022-12-17T05:37:26;102370.47;;;-1.14;88.92
73267;BME280;61495;53.400;7.608;2022-12-17T05:40:10;102370.47;;;-1.14;88.99
73267;BME280;61495;53.400;7.608;2022-12-17T05:43:00;102383.72;;;-1.15;89.06
73267;BME280;61495;53.400;7.608;2022-12-17T05:45:45;102371.78;;;-1.21;88.88
73267;BME280;61495;53.400;7.608;2022-12-17T05:48:30;102373.38;;;-1.18;88.87
73267;BME280;61495;53.400;7.608;2022-12-17T05:51:14;102375.16;;;-1.19;88.78
73267;BME280;61495;53.400;7.608;2022-12-17T05:53:59;102369.91;;;-1.19;88.82
73267;BME280;61495;53.400;7.608;2022-12-17T05:56:42;102362.31;;;-1.23;88.92
73267;BME280;61495;53.400;7.608;2022-12-17T05:59:26;102374.41;;;-1.21;89.04
73267;BME280;61495;53.400;7.608;2022-12-17T06:02:10;102366.53;;;-1.21;88.95
73267;BME280;61495;53.400;7.608;2022-12-17T06:04:54;102378.81;;;-1.21;88.86
73267;BME280;61495;53.400;7.608;2022-12-17T06:07:38;102386.72;;;-1.21;89.14
73267;BME280;61495;53.400;7.608;2022-12-17T06:10:22;102390.28;;;-1.22;88.94
73267;BME280;61495;53.400;7.608;2022-12-17T06:13:06;102396.28;;;-1.20;89.11
73267;BME280;61495;53.400;7.608;2022-12-17T06:15:50;102391.97;;;-1.21;88.73
73267;BME280;61495;53.400;7.608;2022-12-17T06:18:35;102390.19;;;-1.21;88.90
73267;BME280;61495;53.400;7.608;2022-12-17T06:21:19;102395.56;;;-1.22;88.92
73267;BME280;61495;53.400;7.608;2022-12-17T06:24:04;102393.75;;;-1.22;88.78
73267;BME280;61495;53.400;7.608;2022-12-17T06:26:48;102393.75;;;-1.22;88.81
73267;BME280;61495;53.400;7.608;2022-12-17T06:29:32;102390.38;;;-1.24;88.93
73267;BME280;61495;53.400;7.608;2022-12-17T06:32:17;102398.06;;;-1.21;88.92
73267;BME280;61495;53.400;7.608;2022-12-17T06:35:01;102400.81;;;-1.22;89.10
73267;BME280;61495;53.400;7.608;2022-12-17T06:37:45;102404.38;;;-1.23;89.02
73267;BME280;61495;53.400;7.608;2022-12-17T06:40:29;102411.31;;;-1.22;88.72
73267;BME280;61495;53.400;7.608;2022-12-17T06:43:13;102400.81;;;-1.22;88.93
73267;BME280;61495;53.400;7.608;2022-12-17T06:45:57;102406.88;;;-1.22;89.00
73267;BME280;61495;53.400;7.608;2022-12-17T06:48:41;102406.06;;;-1.22;88.77
73267;BME280;61495;53.400;7.608;2022-12-17T06:51:25;102421.06;;;-1.24;88.72
73267;BME280;61495;53.400;7.608;2022-12-17T06:54:10;102413.19;;;-1.24;88.79
73267;BME280;61495;53.400;7.608;2022-12-17T06:56:58;102419.28;;;-1.24;89.00
73267;BME280;61495;53.400;7.608;2022-12-17T06:59:42;102427.28;;;-1.25;88.89
73267;BME280;61495;53.400;7.608;2022-12-17T07:02:26;102424.53;;;-1.24;89.07
73267;BME280;61495;53.400;7.608;2022-12-17T07:05:10;102421.06;;;-1.24;89.13
73267;BME280;61495;53.400;7.608;2022-12-17T07:07:58;102420.13;;;-1.23;89.09
73267;BME280;61495;53.400;7.608;2022-12-17T07:10:42;102413.19;;;-1.24;88.67
73267;BME280;61495;53.400;7.608;2022-12-17T07:13:27;102424.47;;;-1.22;89.02
73267;BME280;61495;53.400;7.608;2022-12-17T07:16:11;102424.53;;;-1.24;88.97
73267;BME280;61495;53.400;7.608;2022-12-17T07:18:55;102433.28;;;-1.23;88.94
73267;BME280;61495;53.400;7.608;2022-12-17T07:21:39;102438.53;;;-1.23;89.04
73267;BME280;61495;53.400;7.608;2022-12-17T07:24:24;102440.25;;;-1.22;89.11
73267;BME280;61495;53.400;7.608;2022-12-17T07:27:07;102448.31;;;-1.25;88.92
73267;BME280;61495;53.400;7.608;2022-12-17T07:29:52;102451.69;;;-1.23;88.81
73267;BME280;61495;53.400;7.608;2022-12-17T07:32:36;102469.16;;;-1.22;88.99
73267;BME280;61495;53.400;7.608;2022-12-17T07:35:20;102472.72;;;-1.23;89.10
73267;BME280;61495;53.400;7.608;2022-12-17T07:38:04;102471.78;;;-1.22;88.84
73267;BME280;61495;53.400;7.608;2022-12-17T07:40:48;102460.44;;;-1.23;88.93
73267;BME280;61495;53.400;7.608;2022-12-17T07:43:32;102457.88;;;-1.24;88.71
73267;BME280;61495;53.400;7.608;2022-12-17T07:46:17;102457.97;;;-1.26;88.99
73267;BME280;61495;53.400;7.608;2022-12-17T07:49:01;102472.91;;;-1.26;89.38
73267;BME280;61495;53.400;7.608;2022-12-17T07:51:45;102472.91;;;-1.26;88.74
73267;BME280;61495;53.400;7.608;2022-12-17T07:54:29;102484.34;;;-1.27;88.94
73267;BME280;61495;53.400;7.608;2022-12-17T07:57:13;102476.56;;;-1.29;88.84
73267;BME280;61495;53.400;7.608;2022-12-17T07:59:57;102482.66;;;-1.28;89.03
73267;BME280;61495;53.400;7.608;2022-12-17T08:02:41;102479.25;;;-1.30;88.96
73267;BME280;61495;53.400;7.608;2022-12-17T08:05:25;102480.22;;;-1.31;88.61
73267;BME280;61495;53.400;7.608;2022-12-17T08:08:11;102483.69;;;-1.31;88.92
73267;BME280;61495;53.400;7.608;2022-12-17T08:10:55;102482.75;;;-1.30;88.97
73267;BME280;61495;53.400;7.608;2022-12-17T08:13:39;102479.25;;;-1.30;88.96
73267;BME280;61495;53.400;7.608;2022-12-17T08:16:23;102492.50;;;-1.32;88.99
73267;BME280;61495;53.400;7.608;2022-12-17T08:19:07;102506.50;;;-1.31;88.90
73267;BME280;61495;53.400;7.608;2022-12-17T08:21:51;102505.66;;;-1.32;89.19
73267;BME280;61495;53.400;7.608;2022-12-17T08:24:35;102512.69;;;-1.32;88.96
73267;BME280;61495;53.400;7.608;2022-12-17T08:27:19;102523.13;;;-1.31;89.08
73267;BME280;61495;53.400;7.608;2022-12-17T08:30:04;102511.75;;;-1.31;89.14
73267;BME280;61495;53.400;7.608;2022-12-17T08:32:48;102519.72;;;-1.33;88.98
73267;BME280;61495;53.400;7.608;2022-12-17T08:35:32;102521.50;;;-1.33;89.27
73267;BME280;61495;53.400;7.608;2022-12-17T08:38:17;102521.50;;;-1.33;89.05
73267;BME280;61495;53.400;7.608;2022-12-17T08:41:01;102519.81;;;-1.34;89.06
73267;BME280;61495;53.400;7.608;2022-12-17T08:43:45;102527.69;;;-1.34;89.22
73267;BME280;61495;53.400;7.608;2022-12-17T08:46:29;102523.19;;;-1.32;89.17
73267;BME280;61495;53.400;7.608;2022-12-17T08:49:13;102531.06;;;-1.32;89.20
73267;BME280;61495;53.400;7.608;2022-12-17T08:52:16;102529.38;;;-1.33;89.05
73267;BME280;61495;53.400;7.608;2022-12-17T08:55:00;102541.59;;;-1.32;89.01
73267;BME280;61495;53.400;7.608;2022-12-17T08:57:55;102542.44;;;-1.32;88.99
73267;BME280;61495;53.400;7.608;2022-12-17T09:00:39;102543.28;;;-1.31;89.25
73267;BME280;61495;53.400;7.608;2022-12-17T09:03:24;102538.03;;;-1.31;89.10
73267;BME280;61495;53.400;7.608;2022-12-17T09:06:08;102544.97;;;-1.30;89.02
73267;BME280;61495;53.400;7.608;2022-12-17T09:09:12;102549.31;;;-1.29;89.08
73267;BME280;61495;53.400;7.608;2022-12-17T09:11:56;102551.06;;;-1.30;89.14
73267;BME280;61495;53.400;7.608;2022-12-17T09:14:39;102552.97;;;-1.32;89.00
73267;BME280;61495;53.400;7.608;2022-12-17T09:17:24;102552.09;;;-1.32;89.24
73267;BME280;61495;53.400;7.608;2022-12-17T09:20:08;102551.00;;;-1.28;89.42
73267;BME280;61495;53.400;7.608;2022-12-17T09:22:52;102551.75;;;-1.26;89.27
73267;BME280;61495;53.400;7.608;2022-12-17T09:25:36;102553.47;;;-1.25;89.30
73267;BME280;61495;53.400;7.608;2022-12-17T09:28:20;102563.97;;;-1.25;89.27
73267;BME280;61495;53.400;7.608;2022-12-17T09:31:15;102556.84;;;-1.23;88.92
73267;BME280;61495;53.400;7.608;2022-12-17T09:33:59;102564.72;;;-1.23;89.24
73267;BME280;61495;53.400;7.608;2022-12-17T09:36:43;102572.59;;;-1.23;89.35
73267;BME280;61495;53.400;7.608;2022-12-17T09:39:27;102579.56;;;-1.22;89.33
73267;BME280;61495;53.400;7.608;2022-12-17T09:42:30;102574.31;;;-1.22;89.20
73267;BME280;61495;53.400;7.608;2022-12-17T09:45:31;102580.31;;;-1.20;89.08
73267;BME280;61495;53.400;7.608;2022-12-17T09:48:44;102580.31;;;-1.20;89.17
73267;BME280;61495;53.400;7.608;2022-12-17T09:51:36;102569.06;;;-1.22;89.30
73267;BME280;61495;53.400;7.608;2022-12-17T09:54:25;102579.41;;;-1.19;89.20
73267;BME280;61495;53.400;7.608;2022-12-17T09:57:15;102581.06;;;-1.18;89.17
73267;BME280;61495;53.400;7.608;2022-12-17T10:00:06;102574.78;;;-1.16;89.19
73267;BME280;61495;53.400;7.608;2022-12-17T10:02:53;102577.41;;;-1.16;89.09
73267;BME280;61495;53.400;7.608;2022-12-17T10:05:37;102586.16;;;-1.15;89.04
73267;BME280;61495;53.400;7.608;2022-12-17T10:08:23;102587.84;;;-1.14;89.27
73267;BME280;61495;53.400;7.608;2022-12-17T10:11:13;102595.63;;;-1.13;89.05
73267;BME280;61495;53.400;7.608;2022-12-17T10:14:05;102598.19;;;-1.11;88.93
73267;BME280;61495;53.400;7.608;2022-12-17T10:16:54;102604.38;;;-1.12;88.96
73267;BME280;61495;53.400;7.608;2022-12-17T10:19:40;102608.72;;;-1.11;89.02
73267;BME280;61495;53.400;7.608;2022-12-17T10:22:25;102607.13;;;-1.14;89.06
73267;BME280;61495;53.400;7.608;2022-12-17T10:25:19;102603.47;;;-1.11;88.87
73267;BME280;61495;53.400;7.608;2022-12-17T10:28:10;102600.81;;;-1.11;88.92
73267;BME280;61495;53.400;7.608;2022-12-17T10:30:55;102596.50;;;-1.12;89.17
73267;BME280;61495;53.400;7.608;2022-12-17T10:33:40;102591.22;;;-1.12;89.06
73267;BME280;61495;53.400;7.608;2022-12-17T10:36:25;102600.81;;;-1.11;89.00
73267;BME280;61495;53.400;7.608;2022-12-17T10:39:22;102594.66;;;-1.10;88.90
73267;BME280;61495;53.400;7.608;2022-12-17T10:42:24;102595.47;;;-1.09;88.99
73267;BME280;61495;53.400;7.608;2022-12-17T10:48:02;102611.91;;;-1.06;89.04
73267;BME280;61495;53.400;7.608;2022-12-17T10:50:46;102607.63;;;-1.07;89.05
73267;BME280;61495;53.400;7.608;2022-12-17T10:53:30;102602.25;;;-1.05;88.86
73267;BME280;61495;53.400;7.608;2022-12-17T10:56:22;102603.09;;;-1.05;89.16
73267;BME280;61495;53.400;7.608;2022-12-17T10:59:28;102606.47;;;-1.03;89.11
73267;BME280;61495;53.400;7.608;2022-12-17T11:02:25;102591.56;;;-1.02;89.04
73267;BME280;61495;53.400;7.608;2022-12-17T11:05:29;102594.28;;;-1.04;88.85
73267;BME280;61495;53.400;7.608;2022-12-17T11:08:17;102594.38;;;-1.05;89.08
73267;BME280;61495;53.400;7.608;2022-12-17T11:11:03;102596.13;;;-1.06;88.89
73267;BME280;61495;53.400;7.608;2022-12-17T11:13:50;102586.47;;;-1.05;89.04
73267;BME280;61495;53.400;7.608;2022-12-17T11:17:02;102594.28;;;-1.04;88.84
73267;BME280;61495;53.400;7.608;2022-12-17T11:20:02;102589.03;;;-1.04;88.95
73267;BME280;61495;53.400;7.608;2022-12-17T11:22:55;102585.44;;;-1.03;88.94
73267;BME280;61495;53.400;7.608;2022-12-17T11:25:52;102581.88;;;-1.02;88.68
73267;BME280;61495;53.400;7.608;2022-12-17T11:28:37;102584.41;;;-1.00;88.83
73267;BME280;61495;53.400;7.608;2022-12-17T11:37:19;102586.78;;;-0.96;88.88
73267;BME280;61495;53.400;7.608;2022-12-17T11:40:29;102588.47;;;-0.95;88.76
73267;BME280;61495;53.400;7.608;2022-12-17T11:46:26;102589.13;;;-0.91;88.94
73267;BME280;61495;53.400;7.608;2022-12-17T11:49:33;102613.66;;;-0.91;89.02
73267;BME280;61495;53.400;7.608;2022-12-17T11:55:35;102611.78;;;-0.89;88.75
73267;BME280;61495;53.400;7.608;2022-12-17T11:58:35;102609.25;;;-0.90;88.65
73267;BME280;61495;53.400;7.608;2022-12-17T12:01:30;102605.78;;;-0.91;88.69
73267;BME280;61495;53.400;7.608;2022-12-17T12:07:43;102609.16;;;-0.89;88.52
73267;BME280;61495;53.400;7.608;2022-12-17T12:10:36;102605.94;;;-0.94;88.49
73267;BME280;61495;53.400;7.608;2022-12-17T12:16:34;102609.31;;;-0.92;88.68
73267;BME280;61495;53.400;7.608;2022-12-17T12:19:29;102606.63;;;-0.90;88.78
73267;BME280;61495;53.400;7.608;2022-12-17T12:22:22;102591.69;;;-0.90;88.59
73267;BME280;61495;53.400;7.608;2022-12-17T12:29:00;102595.25;;;-0.91;88.59
73267;BME280;61495;53.400;7.608;2022-12-17T12:31:45;102597.81;;;-0.89;88.76
73267;BME280;61495;53.400;7.608;2022-12-17T12:34:36;102594.50;;;-0.93;88.65
73267;BME280;61495;53.400;7.608;2022-12-17T12:37:21;102601.53;;;-0.93;88.62
73267;BME280;61495;53.400;7.608;2022-12-17T12:43:20;102597.13;;;-0.93;88.65
73267;BME280;61495;53.400;7.608;2022-12-17T12:46:15;102591.88;;;-0.93;88.49
73267;BME280;61495;53.400;7.608;2022-12-17T12:49:11;102590.91;;;-0.92;88.58
73267;BME280;61495;53.400;7.608;2022-12-17T12:51:57;102598.81;;;-0.92;88.60
73267;BME280;61495;53.400;7.608;2022-12-17T12:57:35;102599.66;;;-0.91;88.56
73267;BME280;61495;53.400;7.608;2022-12-17T13:00:36;102584.91;;;-0.94;88.59
73267;BME280;61495;53.400;7.608;2022-12-17T13:06:43;102576.84;;;-0.91;88.36
73267;BME280;61495;53.400;7.608;2022-12-17T13:11:41;102588.09;;;-0.89;88.75
73267;BME280;61495;53.400;7.608;2022-12-17T13:15:18;102595.19;;;-0.89;88.58
73267;BME280;61495;53.400;7.608;2022-12-17T13:19:43;102601.44;;;-0.92;88.72
73267;BME280;61495;53.400;7.608;2022-12-17T13:24:41;102600.50;;;-0.91;88.46
73267;BME280;61495;53.400;7.608;2022-12-17T13:27:29;102602.22;;;-0.90;88.41
73267;BME280;61495;53.400;7.608;2022-12-17T13:29:56;102593.53;;;-0.92;88.49
73267;BME280;61495;53.400;7.608;2022-12-17T13:32:27;102609.16;;;-0.89;88.45
73267;BME280;61495;53.400;7.608;2022-12-17T13:38:29;102605.59;;;-0.88;88.61
73267;BME280;61495;53.400;7.608;2022-12-17T13:41:10;102604.91;;;-0.91;88.71
73267;BME280;61495;53.400;7.608;2022-12-17T13:43:45;102616.28;;;-0.91;88.47
73267;BME280;61495;53.400;7.608;2022-12-17T13:51:23;102611.03;;;-0.91;88.50
73267;BME280;61495;53.400;7.608;2022-12-17T13:54:14;102595.25;;;-0.91;88.44
73267;BME280;61495;53.400;7.608;2022-12-17T13:56:39;102591.88;;;-0.93;88.45
73267;BME280;61495;53.400;7.608;2022-12-17T13:59:05;102584.91;;;-0.94;88.48
73267;BME280;61495;53.400;7.608;2022-12-17T14:01:31;102589.31;;;-0.94;88.52
73267;BME280;61495;53.400;7.608;2022-12-17T14:03:59;102596.34;;;-0.95;88.63
73267;BME280;61495;53.400;7.608;2022-12-17T14:06:36;102607.66;;;-0.93;88.51
73267;BME280;61495;53.400;7.608;2022-12-17T14:09:02;102612.13;;;-0.95;88.44
73267;BME280;61495;53.400;7.608;2022-12-17T14:11:28;102628.78;;;-0.94;88.41
73267;BME280;61495;53.400;7.608;2022-12-17T14:14:30;102636.84;;;-0.97;88.63
73267;BME280;61495;53.400;7.608;2022-12-17T14:16:55;102639.47;;;-0.97;88.51
73267;BME280;61495;53.400;7.608;2022-12-17T14:19:21;102639.56;;;-0.99;88.42
73267;BME280;61495;53.400;7.608;2022-12-17T14:21:47;102641.41;;;-1.01;88.68
73267;BME280;61495;53.400;7.608;2022-12-17T14:24:12;102635.22;;;-1.00;88.39
73267;BME280;61495;53.400;7.608;2022-12-17T14:26:49;102643.22;;;-1.01;88.41
73267;BME280;61495;53.400;7.608;2022-12-17T14:29:22;102642.28;;;-1.00;88.61
73267;BME280;61495;53.400;7.608;2022-12-17T14:32:24;102636.16;;;-1.01;88.44
73267;BME280;61495;53.400;7.608;2022-12-17T14:34:50;102634.47;;;-1.02;88.55
73267;BME280;61495;53.400;7.608;2022-12-17T14:37:16;102629.22;;;-1.02;88.56
73267;BME280;61495;53.400;7.608;2022-12-17T14:39:44;102632.78;;;-1.03;88.40
73267;BME280;61495;53.400;7.608;2022-12-17T14:42:17;102621.59;;;-1.06;88.53
73267;BME280;61495;53.400;7.608;2022-12-17T14:45:02;102631.19;;;-1.05;88.46
73267;BME280;61495;53.400;7.608;2022-12-17T14:47:34;102639.06;;;-1.05;88.50
73267;BME280;61495;53.400;7.608;2022-12-17T14:52:33;102623.47;;;-1.08;88.62
73267;BME280;61495;53.400;7.608;2022-12-17T14:55:00;102630.50;;;-1.09;88.58
73267;BME280;61495;53.400;7.608;2022-12-17T14:57:25;102622.59;;;-1.09;88.70
73267;BME280;61495;53.400;7.608;2022-12-17T14:59:51;102622.59;;;-1.09;88.50
73267;BME280;61495;53.400;7.608;2022-12-17T15:02:23;102624.50;;;-1.11;88.60
73267;BME280;61495;53.400;7.608;2022-12-17T15:04:52;102628.03;;;-1.12;88.63
73267;BME280;61495;53.400;7.608;2022-12-17T15:07:25;102629.75;;;-1.11;88.41
73267;BME280;61495;53.400;7.608;2022-12-17T15:09:52;102622.78;;;-1.12;88.71
73267;BME280;61495;53.400;7.608;2022-12-17T15:12:19;102629.91;;;-1.14;88.34
73267;BME280;61495;53.400;7.608;2022-12-17T15:14:44;102636.03;;;-1.14;88.63
73267;BME280;61495;53.400;7.608;2022-12-17T15:17:10;102632.63;;;-1.16;88.49
73267;BME280;61495;53.400;7.608;2022-12-17T15:19:36;102633.56;;;-1.17;88.58